createdAt,value
2023-05-22T00:02:24.353Z,100951.75
2023-05-22T00:04:58.637Z,100954.38
2023-05-22T00:07:30.065Z,100951.91
2023-05-22T00:10:01.482Z,100936.13
2023-05-22T00:12:33.804Z,100955.31
2023-05-22T00:15:05.990Z,100952.69
2023-05-22T00:17:37.535Z,100952.84
2023-05-22T00:20:10.862Z,100935.34
2023-05-22T00:22:42.260Z,100950.53
2023-05-22T00:25:13.741Z,100954.91
2023-05-22T00:27:45.211Z,100956.00
2023-05-22T00:30:16.713Z,100952.50
2023-05-22T00:32:48.048Z,100958.97
2023-05-22T00:35:19.544Z,100960.94
2023-05-22T00:37:50.897Z,100940.09
2023-05-22T00:40:22.352Z,100947.94
2023-05-22T00:42:53.803Z,100946.44
2023-05-22T00:45:25.464Z,100938.00
2023-05-22T00:47:56.893Z,100951.31
2023-05-22T00:50:28.376Z,100952.41
2023-05-22T00:52:59.822Z,100945.50
2023-05-22T00:55:31.412Z,100945.66
2023-05-22T00:58:07.700Z,100932.75
2023-05-22T01:00:42.100Z,100949.53
2023-05-22T01:03:15.014Z,100933.00
2023-05-22T01:05:46.530Z,100923.41
2023-05-22T01:08:18.036Z,100935.81
2023-05-22T01:11:08.163Z,100948.31
2023-05-22T01:14:24.839Z,100934.16
2023-05-22T01:17:23.669Z,100929.06
2023-05-22T01:20:07.419Z,100937.34
2023-05-22T01:23:30.099Z,100932.09
2023-05-22T01:26:31.901Z,100933.25
2023-05-22T01:29:19.451Z,100921.13
2023-05-22T01:31:52.620Z,100904.91
2023-05-22T01:34:25.755Z,100922.47
2023-05-22T01:36:58.012Z,100919.25
2023-05-22T01:39:30.448Z,100924.78
2023-05-22T01:42:02.363Z,100910.97
2023-05-22T01:44:33.695Z,100877.97
2023-05-22T01:47:05.792Z,100914.50
2023-05-22T01:49:37.622Z,100911.91
2023-05-22T01:52:32.008Z,100911.97
2023-05-22T01:55:21.116Z,100903.25
2023-05-22T01:58:02.822Z,100911.28
2023-05-22T02:00:36.226Z,100916.72
2023-05-22T02:03:13.500Z,100916.06
2023-05-22T02:05:46.956Z,100922.16
2023-05-22T02:08:20.368Z,100915.94
2023-05-22T02:10:55.875Z,100917.69
2023-05-22T02:13:27.721Z,100916.81
2023-05-22T02:15:59.221Z,100909.03
2023-05-22T02:18:31.369Z,100915.06
2023-05-22T02:21:03.253Z,100906.13
2023-05-22T02:23:34.966Z,100912.31
2023-05-22T02:26:06.631Z,100877.97
2023-05-22T02:28:38.145Z,100889.34
2023-05-22T02:31:09.509Z,100906.94
2023-05-22T02:33:40.938Z,100905.06
2023-05-22T02:36:14.336Z,100905.06
2023-05-22T02:38:45.695Z,100900.63
2023-05-22T02:41:17.153Z,100901.50
2023-05-22T02:43:48.455Z,100901.50
2023-05-22T02:46:19.891Z,100888.41
2023-05-22T02:48:51.220Z,100898.00
2023-05-22T02:51:22.617Z,100886.53
2023-05-22T02:53:53.943Z,100884.94
2023-05-22T02:56:27.744Z,100887.59
2023-05-22T02:58:59.119Z,100890.47
2023-05-22T03:01:31.163Z,100886.97
2023-05-22T03:04:02.571Z,100854.59
2023-05-22T03:06:35.028Z,100884.22
2023-05-22T03:09:06.384Z,100877.09
2023-05-22T03:11:37.858Z,100870.88
2023-05-22T03:14:09.197Z,100869.94
2023-05-22T03:16:41.505Z,100868.13
2023-05-22T03:19:14.772Z,100873.47
2023-05-22T03:21:48.328Z,100871.69
2023-05-22T03:24:19.680Z,100874.34
2023-05-22T03:26:51.145Z,100859.28
2023-05-22T03:29:22.538Z,100868.81
2023-05-22T03:31:54.637Z,100860.63
2023-05-22T03:34:27.347Z,100871.31
2023-05-22T03:36:58.674Z,100872.09
2023-05-22T03:39:30.084Z,100865.78
2023-05-22T03:42:01.493Z,100871.91
2023-05-22T03:44:32.823Z,100870.88
2023-05-22T03:47:04.531Z,100848.81
2023-05-22T03:49:35.945Z,100844.25
2023-05-22T03:52:10.116Z,100858.72
2023-05-22T03:54:41.418Z,100857.78
2023-05-22T03:57:12.744Z,100861.06
2023-05-22T03:59:44.051Z,100862.59
2023-05-22T04:02:16.704Z,100849.16
2023-05-22T04:04:48.489Z,100865.72
2023-05-22T04:07:20.260Z,100863.53
2023-05-22T04:09:51.603Z,100856.44
2023-05-22T04:12:22.946Z,100854.41
2023-05-22T04:14:54.304Z,100861.16
2023-05-22T04:17:30.856Z,100856.56
2023-05-22T04:20:02.317Z,100859.25
2023-05-22T04:22:33.878Z,100856.56
2023-05-22T04:25:05.701Z,100856.50
2023-05-22T04:27:37.912Z,100856.56
2023-05-22T04:30:10.427Z,100847.06
2023-05-22T04:32:41.824Z,100851.50
2023-05-22T04:35:13.239Z,100855.56
2023-05-22T04:37:45.585Z,100858.09
2023-05-22T04:40:17.086Z,100844.09
2023-05-22T04:42:48.417Z,100857.09
2023-05-22T04:45:21.119Z,100859.56
2023-05-22T04:47:53.182Z,100864.69
2023-05-22T04:50:24.841Z,100852.88
2023-05-22T04:52:57.364Z,100837.09
2023-05-22T04:55:29.521Z,100861.34
2023-05-22T04:58:00.955Z,100856.63
2023-05-22T05:00:32.499Z,100860.81
2023-05-22T05:03:04.065Z,100861.31
2023-05-22T05:05:35.581Z,100857.38
2023-05-22T05:08:06.903Z,100864.03
2023-05-22T05:10:38.509Z,100839.75
2023-05-22T05:13:10.018Z,100850.75
2023-05-22T05:15:41.355Z,100864.38
2023-05-22T05:18:12.983Z,100862.94
2023-05-22T05:20:44.394Z,100859.97
2023-05-22T05:23:15.943Z,100856.09
2023-05-22T05:25:47.249Z,100857.50
2023-05-22T05:28:18.665Z,100854.72
2023-05-22T05:30:50.049Z,100856.22
2023-05-22T05:33:21.560Z,100805.47
2023-05-22T05:35:53.566Z,100850.22
2023-05-22T05:38:25.048Z,100843.09
2023-05-22T05:40:56.368Z,100849.75
2023-05-22T05:43:28.248Z,100834.88
2023-05-22T05:46:00.095Z,100847.03
2023-05-22T05:48:31.489Z,100856.38
2023-05-22T05:51:02.918Z,100847.78
2023-05-22T05:53:34.279Z,100851.63
2023-05-22T05:56:06.594Z,100853.91
2023-05-22T05:58:37.992Z,100847.78
2023-05-22T06:01:09.568Z,100833.75
2023-05-22T06:03:41.202Z,100852.50
2023-05-22T06:06:12.689Z,100854.91
2023-05-22T06:08:44.589Z,100839.28
2023-05-22T06:11:15.900Z,100849.16
2023-05-22T06:13:47.228Z,100842.88
2023-05-22T06:16:18.724Z,100846.34
2023-05-22T06:18:52.407Z,100837.66
2023-05-22T06:21:24.457Z,100842.69
2023-05-22T06:23:55.857Z,100847.31
2023-05-22T06:26:27.640Z,100842.00
2023-05-22T06:28:58.968Z,100852.53
2023-05-22T06:31:30.377Z,100847.78
2023-05-22T06:34:01.823Z,100836.13
2023-05-22T06:36:34.653Z,100858.81
2023-05-22T06:39:06.754Z,100849.31
2023-05-22T06:41:38.082Z,100844.53
2023-05-22T06:44:09.459Z,100851.41
2023-05-22T06:46:41.006Z,100866.06
2023-05-22T06:49:12.681Z,100865.75
2023-05-22T06:51:43.999Z,100855.50
2023-05-22T06:54:15.391Z,100857.22
2023-05-22T06:56:46.855Z,100870.25
2023-05-22T06:59:18.210Z,100872.19
2023-05-22T07:01:49.567Z,100856.75
2023-05-22T07:04:20.900Z,100861.09
2023-05-22T07:06:52.508Z,100847.91
2023-05-22T07:09:23.899Z,100855.84
2023-05-22T07:11:55.231Z,100846.41
2023-05-22T07:14:26.542Z,100858.97
2023-05-22T07:16:57.934Z,100858.72
2023-05-22T07:19:29.493Z,100856.28
2023-05-22T07:22:01.162Z,100841.97
2023-05-22T07:24:32.507Z,100857.56
2023-05-22T07:27:04.428Z,100858.22
2023-05-22T07:29:36.207Z,100841.50
2023-05-22T07:32:08.111Z,100815.66
2023-05-22T07:34:39.546Z,100833.97
2023-05-22T07:37:12.867Z,100833.16
2023-05-22T07:39:46.439Z,100844.41
2023-05-22T07:42:17.864Z,100849.38
2023-05-22T07:44:49.326Z,100843.75
2023-05-22T07:47:20.711Z,100848.03
2023-05-22T07:49:52.025Z,100843.47
2023-05-22T07:52:23.831Z,100828.97
2023-05-22T07:54:55.324Z,100822.63
2023-05-22T07:57:26.678Z,100844.22
2023-05-22T07:59:59.186Z,100833.66
2023-05-22T08:02:30.590Z,100831.94
2023-05-22T08:05:04.359Z,100832.69
2023-05-22T08:07:36.438Z,100835.53
2023-05-22T08:10:13.955Z,100814.16
2023-05-22T08:12:45.380Z,100835.44
2023-05-22T08:15:16.706Z,100839.94
2023-05-22T08:17:48.053Z,100834.06
2023-05-22T08:20:19.412Z,100835.31
2023-05-22T08:22:51.771Z,100838.13
2023-05-22T08:25:23.172Z,100830.34
2023-05-22T08:27:54.505Z,100826.38
2023-05-22T08:30:25.850Z,100816.38
2023-05-22T08:32:57.319Z,100838.63
2023-05-22T08:35:28.709Z,100821.19
2023-05-22T08:38:00.131Z,100825.66
2023-05-22T08:40:40.261Z,100821.69
2023-05-22T08:43:12.873Z,100815.53
2023-05-22T08:45:44.406Z,100824.16
2023-05-22T08:48:19.368Z,100812.97
2023-05-22T08:50:57.336Z,100817.06
2023-05-22T08:53:29.544Z,100809.22
2023-05-22T08:56:08.581Z,100822.59
2023-05-22T08:58:40.856Z,100826.78
2023-05-22T09:01:13.911Z,100808.72
2023-05-22T09:03:49.315Z,100781.22
2023-05-22T09:06:20.628Z,100803.53
2023-05-22T09:08:53.281Z,100801.56
2023-05-22T09:11:26.086Z,100805.38
2023-05-22T09:14:08.424Z,100784.91
2023-05-22T09:16:47.097Z,100804.72
2023-05-22T09:19:18.954Z,100799.47
2023-05-22T09:21:51.280Z,100795.44
2023-05-22T09:24:22.583Z,100800.94
2023-05-22T09:26:53.984Z,100795.53
2023-05-22T09:29:25.712Z,100793.72
2023-05-22T09:31:57.260Z,100791.72
2023-05-22T09:34:29.780Z,100781.13
2023-05-22T09:37:05.597Z,100776.59
2023-05-22T09:39:47.485Z,100774.91
2023-05-22T09:42:18.991Z,100776.66
2023-05-22T09:44:51.530Z,100773.44
2023-05-22T09:47:23.909Z,100767.44
2023-05-22T09:49:57.517Z,100777.69
2023-05-22T09:52:29.111Z,100761.59
2023-05-22T09:55:04.633Z,100765.81
2023-05-22T09:57:46.392Z,100765.22
2023-05-22T10:00:18.407Z,100774.88
2023-05-22T10:03:09.236Z,100762.19
2023-05-22T10:05:43.524Z,100766.97
2023-05-22T10:08:20.851Z,100759.28
2023-05-22T10:10:53.121Z,100759.88
2023-05-22T10:13:25.212Z,100742.00
2023-05-22T10:15:57.194Z,100751.63
2023-05-22T10:18:28.852Z,100738.81
2023-05-22T10:21:00.624Z,100744.88
2023-05-22T10:23:32.375Z,100741.41
2023-05-22T10:26:04.589Z,100742.69
2023-05-22T10:28:42.774Z,100719.78
2023-05-22T10:31:40.053Z,100750.22
2023-05-22T10:34:22.061Z,100735.59
2023-05-22T10:37:16.483Z,100739.19
2023-05-22T10:39:51.618Z,100745.88
2023-05-22T10:42:23.095Z,100742.41
2023-05-22T10:44:54.447Z,100732.72
2023-05-22T10:47:26.150Z,100720.78
2023-05-22T10:50:09.462Z,100725.19
2023-05-22T10:52:44.518Z,100730.69
2023-05-22T10:55:22.516Z,100727.63
2023-05-22T10:57:55.451Z,100718.44
2023-05-22T11:00:30.535Z,100719.41
2023-05-22T11:03:18.014Z,100718.06
2023-05-22T11:05:54.022Z,100696.41
2023-05-22T11:08:25.288Z,100731.00
2023-05-22T11:10:59.185Z,100711.81
2023-05-22T11:13:31.272Z,100691.16
2023-05-22T11:16:05.215Z,100669.94
2023-05-22T11:18:36.633Z,100710.06
2023-05-22T11:21:10.188Z,100694.34
2023-05-22T11:23:41.660Z,100701.31
2023-05-22T11:26:22.231Z,100697.75
2023-05-22T11:28:54.160Z,100685.66
2023-05-22T11:31:26.826Z,100699.34
2023-05-22T11:33:58.544Z,100684.75
2023-05-22T11:36:30.145Z,100690.34
2023-05-22T11:39:01.495Z,100680.34
2023-05-22T11:41:34.219Z,100679.50
2023-05-22T11:44:08.128Z,100687.75
2023-05-22T11:46:39.903Z,100672.81
2023-05-22T11:49:14.765Z,100675.31
2023-05-22T11:51:48.764Z,100659.91
2023-05-22T11:54:20.408Z,100677.44
2023-05-22T11:56:51.783Z,100677.97
2023-05-22T11:59:23.161Z,100671.41
2023-05-22T12:01:54.640Z,100678.38
2023-05-22T12:04:26.485Z,100655.78
2023-05-22T12:06:58.067Z,100655.47
2023-05-22T12:09:29.564Z,100658.97
2023-05-22T12:12:01.306Z,100641.50
2023-05-22T12:14:32.780Z,100657.63
2023-05-22T12:17:04.557Z,100664.00
2023-05-22T12:19:47.209Z,100647.06
2023-05-22T12:22:21.248Z,100639.09
2023-05-22T12:24:53.931Z,100641.34
2023-05-22T12:27:33.073Z,100644.56
2023-05-22T12:30:13.574Z,100639.19
2023-05-22T12:32:49.397Z,100642.28
2023-05-22T12:35:20.928Z,100630.34
2023-05-22T12:37:52.374Z,100641.63
2023-05-22T12:40:23.773Z,100627.06
2023-05-22T12:42:55.329Z,100634.81
2023-05-22T12:45:26.720Z,100612.44
2023-05-22T12:47:58.050Z,100629.81
2023-05-22T12:50:29.416Z,100625.59
2023-05-22T12:53:03.856Z,100613.53
2023-05-22T12:55:35.725Z,100604.97
2023-05-22T12:58:07.351Z,100617.19
2023-05-22T13:00:38.989Z,100618.22
2023-05-22T13:03:12.000Z,100601.22
2023-05-22T13:05:43.406Z,100598.59
2023-05-22T13:08:14.813Z,100583.59
2023-05-22T13:10:46.154Z,100596.22
2023-05-22T13:13:17.602Z,100599.00
2023-05-22T13:15:49.067Z,100593.16
2023-05-22T13:18:20.485Z,100589.03
2023-05-22T13:20:51.958Z,100580.28
2023-05-22T13:23:23.565Z,100575.91
2023-05-22T13:25:55.133Z,100549.66
2023-05-22T13:28:26.617Z,100561.16
2023-05-22T13:30:57.925Z,100535.88
2023-05-22T13:33:29.353Z,100557.16
2023-05-22T13:36:01.133Z,100554.16
2023-05-22T13:38:32.503Z,100546.09
2023-05-22T13:41:03.975Z,100551.78
2023-05-22T13:43:35.337Z,100554.41
2023-05-22T13:46:06.951Z,100548.56
2023-05-22T13:48:38.756Z,100540.16
2023-05-22T13:51:10.083Z,100543.50
2023-05-22T13:53:41.431Z,100536.81
2023-05-22T13:56:12.832Z,100547.00
2023-05-22T13:58:44.287Z,100531.50
2023-05-22T14:01:15.740Z,100536.75
2023-05-22T14:03:47.151Z,100522.84
2023-05-22T14:06:18.620Z,100528.59
2023-05-22T14:08:49.936Z,100521.75
2023-05-22T14:11:22.435Z,100507.91
2023-05-22T14:13:54.136Z,100527.56
2023-05-22T14:16:25.574Z,100530.81
2023-05-22T14:18:57.117Z,100529.22
2023-05-22T14:21:28.595Z,100527.41
2023-05-22T14:24:02.346Z,100547.72
2023-05-22T14:26:33.737Z,100555.78
2023-05-22T14:29:05.329Z,100546.66
2023-05-22T14:31:50.499Z,100561.16
2023-05-22T14:34:22.936Z,100590.47
2023-05-22T14:36:56.486Z,100586.84
2023-05-22T14:39:27.990Z,100602.31
2023-05-22T14:41:59.373Z,100613.34
2023-05-22T14:44:30.701Z,100631.09
2023-05-22T14:47:02.032Z,100632.50
2023-05-22T14:49:33.369Z,100636.28
2023-05-22T14:52:04.941Z,100610.00
2023-05-22T14:54:36.290Z,100620.47
2023-05-22T14:57:07.609Z,100657.06
2023-05-22T14:59:38.998Z,100663.09
2023-05-22T15:02:10.503Z,100697.41
2023-05-22T15:04:41.874Z,100719.53
2023-05-22T15:07:13.205Z,100718.31
2023-05-22T15:09:44.522Z,100727.19
2023-05-22T15:12:15.854Z,100708.22
2023-05-22T15:14:47.167Z,100718.66
2023-05-22T15:17:18.583Z,100683.63
2023-05-22T15:19:49.984Z,100688.84
2023-05-22T15:22:21.400Z,100661.78
2023-05-22T15:25:11.352Z,100628.88
2023-05-22T15:27:42.804Z,100644.88
2023-05-22T15:30:17.324Z,100635.13
2023-05-22T15:32:49.077Z,100600.59
2023-05-22T15:35:20.749Z,100550.72
2023-05-22T15:37:52.586Z,100622.66
2023-05-22T15:40:24.060Z,100615.56
2023-05-22T15:42:55.820Z,100580.19
2023-05-22T15:45:27.482Z,100598.13
2023-05-22T15:47:59.010Z,100555.47
2023-05-22T15:50:31.391Z,100586.44
2023-05-22T15:53:02.779Z,100583.56
2023-05-22T15:55:34.527Z,100575.63
2023-05-22T15:58:07.733Z,100557.25
2023-05-22T16:00:41.241Z,100536.16
2023-05-22T16:03:13.240Z,100578.03
2023-05-22T16:05:46.914Z,100580.56
2023-05-22T16:08:18.379Z,100570.94
2023-05-22T16:10:49.828Z,100574.84
2023-05-22T16:13:21.255Z,100548.63
2023-05-22T16:15:52.995Z,100552.88
2023-05-22T16:18:24.369Z,100540.22
2023-05-22T16:20:55.748Z,100541.25
2023-05-22T16:23:27.180Z,100544.19
2023-05-22T16:25:58.500Z,100552.38
2023-05-22T16:28:29.883Z,100544.53
2023-05-22T16:31:01.314Z,100557.75
2023-05-22T16:33:34.342Z,100561.38
2023-05-22T16:36:06.983Z,100539.50
2023-05-22T16:38:38.385Z,100545.75
2023-05-22T16:41:09.727Z,100550.28
2023-05-22T16:43:41.211Z,100553.06
2023-05-22T16:46:12.779Z,100573.28
2023-05-22T16:48:44.320Z,100623.63
2023-05-22T16:51:15.966Z,100639.97
2023-05-22T16:53:49.416Z,100659.38
2023-05-22T16:56:21.024Z,100654.09
2023-05-22T16:58:52.508Z,100644.94
2023-05-22T17:01:23.957Z,100641.53
2023-05-22T17:03:55.436Z,100634.81
2023-05-22T17:06:27.669Z,100650.63
2023-05-22T17:08:58.997Z,100656.00
2023-05-22T17:11:30.470Z,100649.59
2023-05-22T17:14:02.008Z,100638.84
2023-05-22T17:16:33.441Z,100636.53
2023-05-22T17:19:04.905Z,100633.22
2023-05-22T17:21:38.086Z,100615.53
2023-05-22T17:24:11.615Z,100626.25
2023-05-22T17:26:45.229Z,100619.00
2023-05-22T17:29:17.075Z,100614.09
2023-05-22T17:31:48.568Z,100617.88
2023-05-22T17:34:19.928Z,100624.84
2023-05-22T17:36:51.225Z,100616.63
2023-05-22T17:39:22.658Z,100612.03
2023-05-22T17:41:54.520Z,100613.69
2023-05-22T17:44:26.146Z,100610.53
2023-05-22T17:46:57.837Z,100606.03
2023-05-22T17:49:29.298Z,100579.97
2023-05-22T17:52:00.707Z,100596.88
2023-05-22T17:54:35.789Z,100597.66
2023-05-22T17:57:07.205Z,100585.50
2023-05-22T17:59:40.395Z,100583.91
2023-05-22T18:02:12.046Z,100572.91
2023-05-22T18:04:43.527Z,100586.91
2023-05-22T18:07:17.123Z,100589.59
2023-05-22T18:09:48.544Z,100590.53
2023-05-22T18:14:54.323Z,100570.91
2023-05-22T18:17:26.378Z,100579.47
2023-05-22T18:19:57.885Z,100580.72
2023-05-22T18:22:29.213Z,100557.31
2023-05-22T18:25:01.265Z,100566.81
2023-05-22T18:27:33.202Z,100558.81
2023-05-22T18:30:05.282Z,100572.31
2023-05-22T18:32:36.873Z,100570.75
2023-05-22T18:35:08.962Z,100585.03
2023-05-22T18:37:40.402Z,100619.69
2023-05-22T18:40:12.492Z,100628.53
2023-05-22T18:42:43.864Z,100639.22
2023-05-22T18:45:15.303Z,100624.50
2023-05-22T18:47:46.698Z,100662.34
2023-05-22T18:50:18.207Z,100647.63
2023-05-22T18:52:49.535Z,100673.59
2023-05-22T18:55:21.998Z,100663.50
2023-05-22T18:57:53.546Z,100675.84
2023-05-22T19:00:24.957Z,100674.09
2023-05-22T19:02:56.440Z,100673.94
2023-05-22T19:05:27.866Z,100687.22
2023-05-22T19:07:59.236Z,100696.06
2023-05-22T19:10:30.604Z,100694.97
2023-05-22T19:13:01.991Z,100694.69
2023-05-22T19:15:37.512Z,100682.13
2023-05-22T19:18:09.012Z,100714.84
2023-05-22T19:20:41.066Z,100721.97
2023-05-22T19:23:13.715Z,100732.13
2023-05-22T19:25:45.055Z,100743.47
2023-05-22T19:28:16.497Z,100727.38
2023-05-22T19:30:48.012Z,100748.69
2023-05-22T19:33:21.207Z,100764.22
2023-05-22T19:35:53.324Z,100751.03
2023-05-22T19:38:25.038Z,100753.78
2023-05-22T19:40:56.454Z,100750.91
2023-05-22T19:43:28.014Z,100753.41
2023-05-22T19:45:59.501Z,100757.03
2023-05-22T19:48:33.138Z,100738.00
2023-05-22T19:51:05.123Z,100763.25
2023-05-22T19:53:36.591Z,100756.97
2023-05-22T19:56:08.158Z,100755.28
2023-05-22T19:58:39.711Z,100754.63
2023-05-22T20:01:11.143Z,100752.59
2023-05-22T20:03:42.694Z,100742.16
2023-05-22T20:06:14.435Z,100741.97
2023-05-22T20:08:46.014Z,100750.56
2023-05-22T20:11:17.335Z,100744.66
2023-05-22T20:13:48.677Z,100747.22
2023-05-22T20:16:20.487Z,100730.63
2023-05-22T20:18:54.015Z,100727.94
2023-05-22T20:21:25.551Z,100742.03
2023-05-22T20:23:57.037Z,100756.81
2023-05-22T20:26:28.418Z,100740.72
2023-05-22T20:28:59.771Z,100736.28
2023-05-22T20:31:31.551Z,100727.50
2023-05-22T20:34:04.618Z,100731.06
2023-05-22T20:36:36.277Z,100731.94
2023-05-22T20:39:09.047Z,100697.91
2023-05-22T20:41:40.364Z,100716.41
2023-05-22T20:44:11.690Z,100709.50
2023-05-22T20:46:43.095Z,100679.97
2023-05-22T20:49:14.450Z,100696.72
2023-05-22T20:51:50.003Z,100672.78
2023-05-22T20:54:21.346Z,100693.09
2023-05-22T20:56:54.618Z,100694.97
2023-05-22T20:59:26.102Z,100698.59
2023-05-22T21:01:57.834Z,100699.47
2023-05-22T21:04:29.254Z,100679.44
2023-05-22T21:07:00.777Z,100696.06
2023-05-22T21:09:32.087Z,100690.75
2023-05-22T21:12:03.939Z,100675.16
2023-05-22T21:14:35.278Z,100685.53
2023-05-22T21:17:06.848Z,100682.78
2023-05-22T21:19:38.332Z,100675.81
2023-05-22T21:22:09.678Z,100683.06
2023-05-22T21:24:40.994Z,100672.63
2023-05-22T21:27:12.336Z,100671.09
2023-05-22T21:29:43.632Z,100666.81
2023-05-22T21:32:14.938Z,100665.13
2023-05-22T21:34:46.682Z,100657.28
2023-05-22T21:37:18.028Z,100649.53
2023-05-22T21:39:49.793Z,100641.81
2023-05-22T21:42:21.718Z,100645.56
2023-05-22T21:44:53.012Z,100652.53
2023-05-22T21:47:24.379Z,100653.34
2023-05-22T21:49:55.721Z,100658.56
2023-05-22T21:52:28.583Z,100654.94
2023-05-22T21:55:02.147Z,100652.13
2023-05-22T21:57:34.196Z,100647.78
2023-05-22T22:00:06.053Z,100647.78
2023-05-22T22:02:37.449Z,100639.94
2023-05-22T22:05:11.507Z,100650.38
2023-05-22T22:07:42.812Z,100652.28
2023-05-22T22:10:14.172Z,100649.66
2023-05-22T22:12:45.485Z,100633.31
2023-05-22T22:15:17.103Z,100647.03
2023-05-22T22:17:49.990Z,100643.56
2023-05-22T22:20:30.539Z,100643.56
2023-05-22T22:23:15.021Z,100639.22
2023-05-22T22:25:46.451Z,100633.03
2023-05-22T22:28:17.788Z,100622.53
2023-05-22T22:30:49.155Z,100631.66
2023-05-22T22:33:22.489Z,100614.22
2023-05-22T22:35:53.915Z,100620.47
2023-05-22T22:38:25.262Z,100605.66
2023-05-22T22:40:56.576Z,100616.06
2023-05-22T22:43:27.954Z,100605.47
2023-05-22T22:45:59.311Z,100609.81
2023-05-22T22:48:30.669Z,100614.38
2023-05-22T22:51:02.510Z,100591.59
2023-05-22T22:53:33.864Z,100616.25
2023-05-22T22:56:05.497Z,100610.88
2023-05-22T22:58:36.819Z,100608.75
2023-05-22T23:01:08.289Z,100599.84
2023-05-22T23:03:39.664Z,100637.69
2023-05-22T23:06:11.197Z,100631.44
2023-05-22T23:08:42.517Z,100607.00
2023-05-22T23:11:13.825Z,100632.31
2023-05-22T23:13:45.356Z,100625.97
2023-05-22T23:16:16.800Z,100625.75
2023-05-22T23:18:48.255Z,100639.03
2023-05-22T23:21:19.628Z,100644.50
2023-05-22T23:23:50.935Z,100648.13
2023-05-22T23:26:22.382Z,100632.31
2023-05-22T23:28:54.090Z,100640.09
2023-05-22T23:31:26.126Z,100630.25
2023-05-22T23:33:58.566Z,100629.84
2023-05-22T23:36:29.927Z,100632.44
2023-05-22T23:39:01.234Z,100637.69
2023-05-22T23:41:33.308Z,100617.50
2023-05-22T23:44:04.653Z,100621.47
2023-05-22T23:46:37.517Z,100607.19
2023-05-22T23:49:09.113Z,100598.13
2023-05-22T23:51:40.486Z,100596.31
2023-05-22T23:54:13.050Z,100594.50
2023-05-22T23:56:45.068Z,100591.03
2023-05-22T23:59:16.663Z,100597.06
